KBIE/BIE METAR and TAF weather

Enter ICAO airport designator
Station Type Date Time Source
KBIE METAR 2019/04/19 22:15 UTC NOAA

KBIE 192215Z AUTO 32003KT 10SM CLR 18/M01 A3000 RMK AO2 T01841015


Station Type Date Time Source
KBIE Decoded METAR 2019/04/19 22:15 UTC NOAA

Beatrice Municipal, NE, United States (KBIE) 40-18N 096-45W
Apr 19, 2019 - 06:15 PM EDT / 2019.04.19 2215 UTC
Wind: from the NW (320 degrees) at 3 MPH (3 KT):0
Visibility: 10 mile(s):0
Sky conditions: clear
Temperature: 65.1 F (18.4 C)
Dew Point: 29.3 F (-1.5 C)
Relative Humidity: 25%
Pressure (altimeter): 30 in. Hg (1015 hPa)
ob: KBIE 192215Z AUTO 32003KT 10SM CLR 18/M01 A3000 RMK AO2 T01841015
cycle: 22

Station Type Date Time Source
KBIE TAF UTC NOAA

Error!

Example: see airport list